sensor_id;sensor_type;location;lat;lon;timestamp;P1;durP1;ratioP1;P2;durP2;ratioP2
79755;SDS011;69239;50.678;12.280;2023-05-07T00:01:28;22.38;;;12.48;;
79755;SDS011;69239;50.678;12.280;2023-05-07T00:03:53;21.52;;;11.90;;
79755;SDS011;69239;50.678;12.280;2023-05-07T00:06:18;20.73;;;13.18;;
79755;SDS011;69239;50.678;12.280;2023-05-07T00:08:44;23.30;;;13.50;;
79755;SDS011;69239;50.678;12.280;2023-05-07T00:11:10;24.42;;;13.57;;
79755;SDS011;69239;50.678;12.280;2023-05-07T00:13:35;22.75;;;14.48;;
79755;SDS011;69239;50.678;12.280;2023-05-07T00:16:04;25.88;;;14.07;;
79755;SDS011;69239;50.678;12.280;2023-05-07T00:18:29;23.13;;;14.02;;
79755;SDS011;69239;50.678;12.280;2023-05-07T00:20:55;21.40;;;12.70;;
79755;SDS011;69239;50.678;12.280;2023-05-07T00:23:21;17.77;;;10.80;;
79755;SDS011;69239;50.678;12.280;2023-05-07T00:25:46;21.42;;;12.65;;
79755;SDS011;69239;50.678;12.280;2023-05-07T00:28:12;21.08;;;12.52;;
79755;SDS011;69239;50.678;12.280;2023-05-07T00:30:37;24.80;;;14.30;;
79755;SDS011;69239;50.678;12.280;2023-05-07T00:33:02;22.88;;;12.23;;
79755;SDS011;69239;50.678;12.280;2023-05-07T00:35:28;19.80;;;12.57;;
79755;SDS011;69239;50.678;12.280;2023-05-07T00:37:54;20.42;;;12.02;;
79755;SDS011;69239;50.678;12.280;2023-05-07T00:40:20;22.83;;;12.90;;
79755;SDS011;69239;50.678;12.280;2023-05-07T00:42:45;18.35;;;9.77;;
79755;SDS011;69239;50.678;12.280;2023-05-07T00:45:12;18.98;;;10.85;;
79755;SDS011;69239;50.678;12.280;2023-05-07T00:47:38;23.20;;;12.80;;
79755;SDS011;69239;50.678;12.280;2023-05-07T00:50:04;22.38;;;12.55;;
79755;SDS011;69239;50.678;12.280;2023-05-07T00:52:30;26.35;;;15.02;;
79755;SDS011;69239;50.678;12.280;2023-05-07T00:54:56;20.58;;;11.80;;
79755;SDS011;69239;50.678;12.280;2023-05-07T00:57:21;22.50;;;12.02;;
79755;SDS011;69239;50.678;12.280;2023-05-07T00:59:49;22.25;;;12.45;;
79755;SDS011;69239;50.678;12.280;2023-05-07T01:02:16;22.77;;;13.05;;
79755;SDS011;69239;50.678;12.280;2023-05-07T01:04:41;23.48;;;12.45;;
79755;SDS011;69239;50.678;12.280;2023-05-07T01:07:07;22.83;;;12.20;;
79755;SDS011;69239;50.678;12.280;2023-05-07T01:09:33;27.35;;;13.27;;
79755;SDS011;69239;50.678;12.280;2023-05-07T01:12:00;20.50;;;11.35;;
79755;SDS011;69239;50.678;12.280;2023-05-07T01:14:25;16.80;;;10.00;;
79755;SDS011;69239;50.678;12.280;2023-05-07T01:16:52;19.88;;;11.88;;
79755;SDS011;69239;50.678;12.280;2023-05-07T01:19:18;25.88;;;12.45;;
79755;SDS011;69239;50.678;12.280;2023-05-07T01:21:47;23.02;;;12.70;;
79755;SDS011;69239;50.678;12.280;2023-05-07T01:24:14;23.17;;;13.30;;
79755;SDS011;69239;50.678;12.280;2023-05-07T01:26:40;23.88;;;11.88;;
79755;SDS011;69239;50.678;12.280;2023-05-07T01:29:05;17.27;;;9.90;;
79755;SDS011;69239;50.678;12.280;2023-05-07T01:31:31;16.15;;;9.82;;
79755;SDS011;69239;50.678;12.280;2023-05-07T01:33:59;18.05;;;10.43;;
79755;SDS011;69239;50.678;12.280;2023-05-07T01:36:26;22.23;;;12.80;;
79755;SDS011;69239;50.678;12.280;2023-05-07T01:38:53;23.13;;;11.55;;
79755;SDS011;69239;50.678;12.280;2023-05-07T01:41:19;21.38;;;11.52;;
79755;SDS011;69239;50.678;12.280;2023-05-07T01:43:45;23.80;;;11.80;;
79755;SDS011;69239;50.678;12.280;2023-05-07T01:46:12;18.02;;;11.02;;
79755;SDS011;69239;50.678;12.280;2023-05-07T01:48:39;22.92;;;11.55;;
79755;SDS011;69239;50.678;12.280;2023-05-07T01:51:04;16.58;;;9.27;;
79755;SDS011;69239;50.678;12.280;2023-05-07T01:53:37;17.98;;;10.05;;
79755;SDS011;69239;50.678;12.280;2023-05-07T01:56:04;18.65;;;9.38;;
79755;SDS011;69239;50.678;12.280;2023-05-07T01:58:30;20.35;;;9.77;;
79755;SDS011;69239;50.678;12.280;2023-05-07T02:00:56;18.23;;;9.05;;
79755;SDS011;69239;50.678;12.280;2023-05-07T02:03:21;19.50;;;9.85;;
79755;SDS011;69239;50.678;12.280;2023-05-07T02:05:46;17.30;;;9.60;;
79755;SDS011;69239;50.678;12.280;2023-05-07T02:08:12;13.87;;;8.33;;
79755;SDS011;69239;50.678;12.280;2023-05-07T02:10:37;15.68;;;8.68;;
79755;SDS011;69239;50.678;12.280;2023-05-07T02:13:02;17.70;;;9.53;;
79755;SDS011;69239;50.678;12.280;2023-05-07T02:15:28;15.20;;;8.95;;
79755;SDS011;69239;50.678;12.280;2023-05-07T02:18:03;13.90;;;8.23;;
79755;SDS011;69239;50.678;12.280;2023-05-07T02:20:29;18.40;;;10.00;;
79755;SDS011;69239;50.678;12.280;2023-05-07T02:22:55;15.75;;;9.13;;
79755;SDS011;69239;50.678;12.280;2023-05-07T02:25:20;14.38;;;8.98;;
79755;SDS011;69239;50.678;12.280;2023-05-07T02:27:46;16.02;;;8.48;;
79755;SDS011;69239;50.678;12.280;2023-05-07T02:30:11;15.33;;;8.40;;
79755;SDS011;69239;50.678;12.280;2023-05-07T02:32:36;16.00;;;8.45;;
79755;SDS011;69239;50.678;12.280;2023-05-07T02:35:02;12.90;;;7.43;;
79755;SDS011;69239;50.678;12.280;2023-05-07T02:37:27;13.63;;;7.35;;
79755;SDS011;69239;50.678;12.280;2023-05-07T02:39:53;14.03;;;6.77;;
79755;SDS011;69239;50.678;12.280;2023-05-07T02:42:18;18.80;;;10.13;;
79755;SDS011;69239;50.678;12.280;2023-05-07T02:44:43;12.07;;;6.87;;
79755;SDS011;69239;50.678;12.280;2023-05-07T02:47:09;12.00;;;7.03;;
79755;SDS011;69239;50.678;12.280;2023-05-07T02:49:35;15.75;;;9.00;;
79755;SDS011;69239;50.678;12.280;2023-05-07T02:52:00;13.15;;;7.75;;
79755;SDS011;69239;50.678;12.280;2023-05-07T02:54:26;11.55;;;6.82;;
79755;SDS011;69239;50.678;12.280;2023-05-07T02:56:51;12.87;;;7.27;;
79755;SDS011;69239;50.678;12.280;2023-05-07T02:59:16;14.68;;;7.78;;
79755;SDS011;69239;50.678;12.280;2023-05-07T03:01:42;15.80;;;8.03;;
79755;SDS011;69239;50.678;12.280;2023-05-07T03:04:09;14.45;;;8.05;;
79755;SDS011;69239;50.678;12.280;2023-05-07T03:06:35;11.23;;;6.28;;
79755;SDS011;69239;50.678;12.280;2023-05-07T03:09:01;11.63;;;6.47;;
79755;SDS011;69239;50.678;12.280;2023-05-07T03:11:26;13.35;;;8.20;;
79755;SDS011;69239;50.678;12.280;2023-05-07T03:13:52;13.32;;;7.40;;
79755;SDS011;69239;50.678;12.280;2023-05-07T03:16:17;12.13;;;7.88;;
79755;SDS011;69239;50.678;12.280;2023-05-07T03:18:42;15.17;;;7.40;;
79755;SDS011;69239;50.678;12.280;2023-05-07T03:21:08;10.70;;;6.60;;
79755;SDS011;69239;50.678;12.280;2023-05-07T03:23:33;9.57;;;6.20;;
79755;SDS011;69239;50.678;12.280;2023-05-07T03:25:59;12.38;;;7.45;;
79755;SDS011;69239;50.678;12.280;2023-05-07T03:28:24;13.30;;;7.05;;
79755;SDS011;69239;50.678;12.280;2023-05-07T03:30:49;11.38;;;6.50;;
79755;SDS011;69239;50.678;12.280;2023-05-07T03:33:15;14.55;;;7.63;;
79755;SDS011;69239;50.678;12.280;2023-05-07T03:35:41;11.20;;;6.80;;
79755;SDS011;69239;50.678;12.280;2023-05-07T03:38:06;10.88;;;6.95;;
79755;SDS011;69239;50.678;12.280;2023-05-07T03:40:32;13.20;;;7.88;;
79755;SDS011;69239;50.678;12.280;2023-05-07T03:42:57;12.02;;;6.30;;
79755;SDS011;69239;50.678;12.280;2023-05-07T03:45:24;14.25;;;7.72;;
79755;SDS011;69239;50.678;12.280;2023-05-07T03:47:49;12.32;;;7.55;;
79755;SDS011;69239;50.678;12.280;2023-05-07T03:50:15;13.87;;;6.97;;
79755;SDS011;69239;50.678;12.280;2023-05-07T03:52:40;15.85;;;9.00;;
79755;SDS011;69239;50.678;12.280;2023-05-07T03:55:05;13.15;;;7.57;;
79755;SDS011;69239;50.678;12.280;2023-05-07T03:57:32;11.95;;;7.97;;
79755;SDS011;69239;50.678;12.280;2023-05-07T03:59:57;15.02;;;7.93;;
79755;SDS011;69239;50.678;12.280;2023-05-07T04:02:23;16.25;;;9.18;;
79755;SDS011;69239;50.678;12.280;2023-05-07T04:04:48;16.33;;;9.10;;
79755;SDS011;69239;50.678;12.280;2023-05-07T04:07:14;18.17;;;11.15;;
79755;SDS011;69239;50.678;12.280;2023-05-07T04:09:40;17.02;;;10.00;;
79755;SDS011;69239;50.678;12.280;2023-05-07T04:12:05;16.58;;;9.52;;
79755;SDS011;69239;50.678;12.280;2023-05-07T04:14:31;22.30;;;10.50;;
79755;SDS011;69239;50.678;12.280;2023-05-07T04:16:57;21.98;;;11.90;;
79755;SDS011;69239;50.678;12.280;2023-05-07T04:19:25;18.77;;;10.85;;
79755;SDS011;69239;50.678;12.280;2023-05-07T04:21:51;20.10;;;10.35;;
79755;SDS011;69239;50.678;12.280;2023-05-07T04:24:16;15.15;;;9.75;;
79755;SDS011;69239;50.678;12.280;2023-05-07T04:26:41;18.42;;;10.43;;
79755;SDS011;69239;50.678;12.280;2023-05-07T04:29:07;19.58;;;11.30;;
79755;SDS011;69239;50.678;12.280;2023-05-07T04:31:32;16.45;;;10.43;;
79755;SDS011;69239;50.678;12.280;2023-05-07T04:33:58;19.50;;;11.02;;
79755;SDS011;69239;50.678;12.280;2023-05-07T04:36:23;20.55;;;11.82;;
79755;SDS011;69239;50.678;12.280;2023-05-07T04:38:52;19.25;;;10.00;;
79755;SDS011;69239;50.678;12.280;2023-05-07T04:41:18;19.42;;;9.85;;
79755;SDS011;69239;50.678;12.280;2023-05-07T04:43:43;23.70;;;12.13;;
79755;SDS011;69239;50.678;12.280;2023-05-07T04:46:08;23.57;;;12.87;;
79755;SDS011;69239;50.678;12.280;2023-05-07T04:48:34;22.30;;;12.23;;
79755;SDS011;69239;50.678;12.280;2023-05-07T04:50:59;22.43;;;12.17;;
79755;SDS011;69239;50.678;12.280;2023-05-07T04:53:25;22.80;;;12.85;;
79755;SDS011;69239;50.678;12.280;2023-05-07T04:55:54;24.55;;;12.43;;
79755;SDS011;69239;50.678;12.280;2023-05-07T04:58:23;20.02;;;11.82;;
79755;SDS011;69239;50.678;12.280;2023-05-07T05:00:49;25.98;;;13.73;;
79755;SDS011;69239;50.678;12.280;2023-05-07T05:03:14;23.27;;;12.27;;
79755;SDS011;69239;50.678;12.280;2023-05-07T05:05:40;19.52;;;11.73;;
79755;SDS011;69239;50.678;12.280;2023-05-07T05:08:05;21.48;;;12.15;;
79755;SDS011;69239;50.678;12.280;2023-05-07T05:10:30;22.75;;;12.50;;
79755;SDS011;69239;50.678;12.280;2023-05-07T05:12:56;20.90;;;11.75;;
79755;SDS011;69239;50.678;12.280;2023-05-07T05:15:21;24.80;;;13.57;;
79755;SDS011;69239;50.678;12.280;2023-05-07T05:17:47;24.75;;;12.82;;
79755;SDS011;69239;50.678;12.280;2023-05-07T05:20:12;22.85;;;12.18;;
79755;SDS011;69239;50.678;12.280;2023-05-07T05:22:38;24.23;;;12.07;;
79755;SDS011;69239;50.678;12.280;2023-05-07T05:25:03;20.90;;;12.35;;
79755;SDS011;69239;50.678;12.280;2023-05-07T05:27:29;22.10;;;12.68;;
79755;SDS011;69239;50.678;12.280;2023-05-07T05:29:55;19.83;;;12.15;;
79755;SDS011;69239;50.678;12.280;2023-05-07T05:32:20;23.15;;;12.52;;
79755;SDS011;69239;50.678;12.280;2023-05-07T05:34:46;21.25;;;11.35;;
79755;SDS011;69239;50.678;12.280;2023-05-07T05:37:11;18.88;;;10.38;;
79755;SDS011;69239;50.678;12.280;2023-05-07T05:39:36;33.05;;;13.15;;
79755;SDS011;69239;50.678;12.280;2023-05-07T05:42:02;20.88;;;11.77;;
79755;SDS011;69239;50.678;12.280;2023-05-07T05:44:27;18.88;;;11.15;;
79755;SDS011;69239;50.678;12.280;2023-05-07T05:46:52;24.57;;;13.13;;
79755;SDS011;69239;50.678;12.280;2023-05-07T05:49:20;20.83;;;13.23;;
79755;SDS011;69239;50.678;12.280;2023-05-07T05:51:46;24.38;;;13.18;;
79755;SDS011;69239;50.678;12.280;2023-05-07T05:54:11;21.67;;;12.37;;
79755;SDS011;69239;50.678;12.280;2023-05-07T05:56:36;21.23;;;11.25;;
79755;SDS011;69239;50.678;12.280;2023-05-07T05:59:02;22.48;;;11.70;;
79755;SDS011;69239;50.678;12.280;2023-05-07T06:01:27;19.83;;;10.90;;
79755;SDS011;69239;50.678;12.280;2023-05-07T06:03:53;18.42;;;10.93;;
79755;SDS011;69239;50.678;12.280;2023-05-07T06:06:18;18.30;;;11.18;;
79755;SDS011;69239;50.678;12.280;2023-05-07T06:08:44;21.48;;;12.15;;
79755;SDS011;69239;50.678;12.280;2023-05-07T06:11:09;22.20;;;12.38;;
79755;SDS011;69239;50.678;12.280;2023-05-07T06:13:35;20.65;;;11.38;;
79755;SDS011;69239;50.678;12.280;2023-05-07T06:16:00;20.50;;;11.52;;
79755;SDS011;69239;50.678;12.280;2023-05-07T06:18:25;19.13;;;12.18;;
79755;SDS011;69239;50.678;12.280;2023-05-07T06:20:51;20.43;;;12.80;;
79755;SDS011;69239;50.678;12.280;2023-05-07T06:23:17;20.23;;;12.20;;
79755;SDS011;69239;50.678;12.280;2023-05-07T06:25:48;21.13;;;12.13;;
79755;SDS011;69239;50.678;12.280;2023-05-07T06:28:15;20.88;;;11.73;;
79755;SDS011;69239;50.678;12.280;2023-05-07T06:30:40;19.52;;;11.50;;
79755;SDS011;69239;50.678;12.280;2023-05-07T06:33:05;21.07;;;11.80;;
79755;SDS011;69239;50.678;12.280;2023-05-07T06:35:31;21.65;;;11.85;;
79755;SDS011;69239;50.678;12.280;2023-05-07T06:37:56;19.98;;;11.43;;
79755;SDS011;69239;50.678;12.280;2023-05-07T06:40:21;19.30;;;11.47;;
79755;SDS011;69239;50.678;12.280;2023-05-07T06:42:47;20.48;;;10.85;;
79755;SDS011;69239;50.678;12.280;2023-05-07T06:45:12;21.30;;;11.53;;
79755;SDS011;69239;50.678;12.280;2023-05-07T06:47:37;18.90;;;11.27;;
79755;SDS011;69239;50.678;12.280;2023-05-07T06:50:03;21.20;;;11.38;;
79755;SDS011;69239;50.678;12.280;2023-05-07T06:52:28;19.23;;;10.77;;
79755;SDS011;69239;50.678;12.280;2023-05-07T06:54:54;18.08;;;10.73;;
79755;SDS011;69239;50.678;12.280;2023-05-07T06:57:19;23.60;;;11.80;;
79755;SDS011;69239;50.678;12.280;2023-05-07T06:59:44;19.63;;;10.50;;
79755;SDS011;69239;50.678;12.280;2023-05-07T07:02:10;16.20;;;10.13;;
79755;SDS011;69239;50.678;12.280;2023-05-07T07:04:35;21.53;;;10.23;;
79755;SDS011;69239;50.678;12.280;2023-05-07T07:07:00;17.70;;;10.30;;
79755;SDS011;69239;50.678;12.280;2023-05-07T07:09:26;18.67;;;10.23;;
79755;SDS011;69239;50.678;12.280;2023-05-07T07:11:51;17.88;;;9.77;;
79755;SDS011;69239;50.678;12.280;2023-05-07T07:14:16;20.40;;;11.23;;
79755;SDS011;69239;50.678;12.280;2023-05-07T07:16:42;17.93;;;10.27;;
79755;SDS011;69239;50.678;12.280;2023-05-07T07:19:07;16.40;;;10.57;;
79755;SDS011;69239;50.678;12.280;2023-05-07T07:21:33;17.40;;;10.57;;
79755;SDS011;69239;50.678;12.280;2023-05-07T07:23:58;15.40;;;9.77;;
79755;SDS011;69239;50.678;12.280;2023-05-07T07:26:23;14.37;;;9.83;;
79755;SDS011;69239;50.678;12.280;2023-05-07T07:28:49;15.23;;;9.50;;
79755;SDS011;69239;50.678;12.280;2023-05-07T07:31:14;15.02;;;9.43;;
79755;SDS011;69239;50.678;12.280;2023-05-07T07:33:40;17.90;;;10.05;;
79755;SDS011;69239;50.678;12.280;2023-05-07T07:36:05;16.35;;;9.43;;
79755;SDS011;69239;50.678;12.280;2023-05-07T07:38:31;14.13;;;9.10;;
79755;SDS011;69239;50.678;12.280;2023-05-07T07:40:57;15.10;;;8.70;;
79755;SDS011;69239;50.678;12.280;2023-05-07T07:43:22;14.33;;;8.53;;
79755;SDS011;69239;50.678;12.280;2023-05-07T07:45:47;12.40;;;7.27;;
79755;SDS011;69239;50.678;12.280;2023-05-07T07:48:13;13.57;;;8.48;;
79755;SDS011;69239;50.678;12.280;2023-05-07T07:50:38;13.35;;;7.63;;
79755;SDS011;69239;50.678;12.280;2023-05-07T07:53:03;13.73;;;7.70;;
79755;SDS011;69239;50.678;12.280;2023-05-07T07:55:29;12.85;;;7.30;;
79755;SDS011;69239;50.678;12.280;2023-05-07T07:57:56;13.55;;;8.30;;
79755;SDS011;69239;50.678;12.280;2023-05-07T08:00:21;12.30;;;7.50;;
79755;SDS011;69239;50.678;12.280;2023-05-07T08:02:46;11.50;;;7.70;;
79755;SDS011;69239;50.678;12.280;2023-05-07T08:05:12;15.40;;;8.67;;
79755;SDS011;69239;50.678;12.280;2023-05-07T08:07:37;11.30;;;7.60;;
79755;SDS011;69239;50.678;12.280;2023-05-07T08:10:03;11.32;;;7.00;;
79755;SDS011;69239;50.678;12.280;2023-05-07T08:12:29;10.55;;;6.68;;
79755;SDS011;69239;50.678;12.280;2023-05-07T08:14:54;11.95;;;7.07;;
79755;SDS011;69239;50.678;12.280;2023-05-07T08:17:19;11.65;;;7.15;;
79755;SDS011;69239;50.678;12.280;2023-05-07T08:19:47;13.25;;;7.72;;
79755;SDS011;69239;50.678;12.280;2023-05-07T08:22:13;12.70;;;7.75;;
79755;SDS011;69239;50.678;12.280;2023-05-07T08:24:38;10.38;;;6.78;;
79755;SDS011;69239;50.678;12.280;2023-05-07T08:27:04;10.80;;;7.18;;
79755;SDS011;69239;50.678;12.280;2023-05-07T08:29:29;10.63;;;6.85;;
79755;SDS011;69239;50.678;12.280;2023-05-07T08:31:55;13.48;;;6.93;;
79755;SDS011;69239;50.678;12.280;2023-05-07T08:34:21;9.63;;;6.82;;
79755;SDS011;69239;50.678;12.280;2023-05-07T08:36:47;10.00;;;6.82;;
79755;SDS011;69239;50.678;12.280;2023-05-07T08:39:13;9.38;;;7.18;;
79755;SDS011;69239;50.678;12.280;2023-05-07T08:41:40;10.70;;;5.90;;
79755;SDS011;69239;50.678;12.280;2023-05-07T08:44:11;10.07;;;6.22;;
79755;SDS011;69239;50.678;12.280;2023-05-07T08:46:37;9.95;;;5.72;;
79755;SDS011;69239;50.678;12.280;2023-05-07T08:49:02;8.55;;;5.38;;
79755;SDS011;69239;50.678;12.280;2023-05-07T08:51:28;6.10;;;4.88;;
79755;SDS011;69239;50.678;12.280;2023-05-07T08:53:53;9.13;;;5.57;;
79755;SDS011;69239;50.678;12.280;2023-05-07T08:56:19;8.75;;;5.97;;
79755;SDS011;69239;50.678;12.280;2023-05-07T08:58:45;9.52;;;6.10;;
79755;SDS011;69239;50.678;12.280;2023-05-07T09:01:14;7.10;;;5.35;;
79755;SDS011;69239;50.678;12.280;2023-05-07T09:03:41;8.98;;;5.53;;
79755;SDS011;69239;50.678;12.280;2023-05-07T09:06:10;9.73;;;5.82;;
79755;SDS011;69239;50.678;12.280;2023-05-07T09:08:36;8.95;;;6.25;;
79755;SDS011;69239;50.678;12.280;2023-05-07T09:11:02;8.60;;;6.20;;
79755;SDS011;69239;50.678;12.280;2023-05-07T09:13:27;7.97;;;5.40;;
79755;SDS011;69239;50.678;12.280;2023-05-07T09:15:54;9.13;;;5.63;;
79755;SDS011;69239;50.678;12.280;2023-05-07T09:18:19;8.75;;;5.43;;
79755;SDS011;69239;50.678;12.280;2023-05-07T09:20:45;9.38;;;6.18;;
79755;SDS011;69239;50.678;12.280;2023-05-07T09:23:10;9.52;;;5.95;;
79755;SDS011;69239;50.678;12.280;2023-05-07T09:25:36;8.70;;;6.07;;
79755;SDS011;69239;50.678;12.280;2023-05-07T09:28:02;8.82;;;6.53;;
79755;SDS011;69239;50.678;12.280;2023-05-07T09:30:29;8.98;;;5.85;;
79755;SDS011;69239;50.678;12.280;2023-05-07T09:32:58;7.22;;;5.40;;
79755;SDS011;69239;50.678;12.280;2023-05-07T09:35:25;7.20;;;5.38;;
79755;SDS011;69239;50.678;12.280;2023-05-07T09:37:55;8.38;;;4.93;;
79755;SDS011;69239;50.678;12.280;2023-05-07T09:40:24;8.27;;;5.70;;
79755;SDS011;69239;50.678;12.280;2023-05-07T09:42:51;7.68;;;5.43;;
79755;SDS011;69239;50.678;12.280;2023-05-07T09:45:26;7.90;;;5.90;;
79755;SDS011;69239;50.678;12.280;2023-05-07T09:47:56;9.13;;;6.70;;
79755;SDS011;69239;50.678;12.280;2023-05-07T09:50:27;8.43;;;5.20;;
79755;SDS011;69239;50.678;12.280;2023-05-07T09:52:54;8.18;;;6.15;;
79755;SDS011;69239;50.678;12.280;2023-05-07T09:55:20;7.93;;;6.47;;
79755;SDS011;69239;50.678;12.280;2023-05-07T09:57:48;7.78;;;5.90;;
79755;SDS011;69239;50.678;12.280;2023-05-07T10:00:20;7.13;;;5.50;;
79755;SDS011;69239;50.678;12.280;2023-05-07T10:02:50;7.57;;;5.43;;
79755;SDS011;69239;50.678;12.280;2023-05-07T10:05:20;7.43;;;5.13;;
79755;SDS011;69239;50.678;12.280;2023-05-07T10:07:46;8.35;;;5.88;;
79755;SDS011;69239;50.678;12.280;2023-05-07T10:10:12;8.02;;;5.60;;
79755;SDS011;69239;50.678;12.280;2023-05-07T10:12:40;8.00;;;5.53;;
79755;SDS011;69239;50.678;12.280;2023-05-07T10:15:06;8.90;;;6.03;;
79755;SDS011;69239;50.678;12.280;2023-05-07T10:17:37;9.13;;;7.13;;
79755;SDS011;69239;50.678;12.280;2023-05-07T10:20:04;7.68;;;5.50;;
79755;SDS011;69239;50.678;12.280;2023-05-07T10:22:32;8.52;;;6.40;;
79755;SDS011;69239;50.678;12.280;2023-05-07T10:25:12;10.07;;;6.40;;
79755;SDS011;69239;50.678;12.280;2023-05-07T10:27:42;7.97;;;5.88;;
79755;SDS011;69239;50.678;12.280;2023-05-07T10:30:15;9.30;;;5.82;;
79755;SDS011;69239;50.678;12.280;2023-05-07T10:32:50;9.23;;;5.50;;
79755;SDS011;69239;50.678;12.280;2023-05-07T10:35:23;6.88;;;5.63;;
79755;SDS011;69239;50.678;12.280;2023-05-07T10:37:50;8.45;;;6.03;;
79755;SDS011;69239;50.678;12.280;2023-05-07T10:40:16;9.57;;;6.35;;
79755;SDS011;69239;50.678;12.280;2023-05-07T10:42:57;8.07;;;5.30;;
79755;SDS011;69239;50.678;12.280;2023-05-07T10:45:27;8.15;;;5.68;;
79755;SDS011;69239;50.678;12.280;2023-05-07T10:50:42;7.25;;;5.32;;
79755;SDS011;69239;50.678;12.280;2023-05-07T10:55:43;6.55;;;4.50;;
79755;SDS011;69239;50.678;12.280;2023-05-07T11:00:49;6.32;;;5.15;;
79755;SDS011;69239;50.678;12.280;2023-05-07T11:03:14;6.38;;;4.47;;
79755;SDS011;69239;50.678;12.280;2023-05-07T11:05:40;6.40;;;4.60;;
79755;SDS011;69239;50.678;12.280;2023-05-07T11:08:06;7.35;;;4.45;;
79755;SDS011;69239;50.678;12.280;2023-05-07T11:10:49;6.10;;;4.80;;
79755;SDS011;69239;50.678;12.280;2023-05-07T11:13:41;6.30;;;4.80;;
79755;SDS011;69239;50.678;12.280;2023-05-07T11:16:20;5.35;;;4.43;;
79755;SDS011;69239;50.678;12.280;2023-05-07T11:18:46;5.40;;;4.32;;
79755;SDS011;69239;50.678;12.280;2023-05-07T11:24:03;5.70;;;4.07;;
79755;SDS011;69239;50.678;12.280;2023-05-07T11:26:31;4.85;;;3.50;;
79755;SDS011;69239;50.678;12.280;2023-05-07T11:29:10;4.75;;;4.25;;
79755;SDS011;69239;50.678;12.280;2023-05-07T11:31:36;5.25;;;4.13;;
79755;SDS011;69239;50.678;12.280;2023-05-07T11:34:02;5.35;;;4.25;;
79755;SDS011;69239;50.678;12.280;2023-05-07T11:36:30;6.57;;;4.72;;
79755;SDS011;69239;50.678;12.280;2023-05-07T11:38:57;5.85;;;3.80;;
79755;SDS011;69239;50.678;12.280;2023-05-07T11:41:22;6.65;;;4.93;;
79755;SDS011;69239;50.678;12.280;2023-05-07T11:43:54;6.40;;;4.38;;
79755;SDS011;69239;50.678;12.280;2023-05-07T11:46:21;5.90;;;4.97;;
79755;SDS011;69239;50.678;12.280;2023-05-07T11:48:47;6.28;;;4.72;;
79755;SDS011;69239;50.678;12.280;2023-05-07T11:51:12;6.07;;;4.40;;
79755;SDS011;69239;50.678;12.280;2023-05-07T11:53:41;7.00;;;5.00;;
79755;SDS011;69239;50.678;12.280;2023-05-07T11:56:08;5.70;;;4.38;;
79755;SDS011;69239;50.678;12.280;2023-05-07T11:58:37;5.72;;;4.78;;
79755;SDS011;69239;50.678;12.280;2023-05-07T12:01:03;7.05;;;5.70;;
79755;SDS011;69239;50.678;12.280;2023-05-07T12:03:29;5.63;;;4.57;;
79755;SDS011;69239;50.678;12.280;2023-05-07T12:05:54;5.63;;;4.20;;
79755;SDS011;69239;50.678;12.280;2023-05-07T12:08:20;6.43;;;5.18;;
79755;SDS011;69239;50.678;12.280;2023-05-07T12:10:47;5.63;;;4.63;;
79755;SDS011;69239;50.678;12.280;2023-05-07T12:13:18;6.03;;;5.30;;
79755;SDS011;69239;50.678;12.280;2023-05-07T12:18:11;6.93;;;4.82;;
79755;SDS011;69239;50.678;12.280;2023-05-07T12:20:38;6.03;;;4.43;;
79755;SDS011;69239;50.678;12.280;2023-05-07T12:23:04;4.70;;;3.78;;
79755;SDS011;69239;50.678;12.280;2023-05-07T12:25:39;4.15;;;3.75;;
79755;SDS011;69239;50.678;12.280;2023-05-07T12:28:05;5.60;;;4.30;;
79755;SDS011;69239;50.678;12.280;2023-05-07T12:30:36;3.83;;;3.42;;
79755;SDS011;69239;50.678;12.280;2023-05-07T12:33:02;5.18;;;3.80;;
79755;SDS011;69239;50.678;12.280;2023-05-07T12:35:28;4.20;;;3.50;;
79755;SDS011;69239;50.678;12.280;2023-05-07T12:37:58;4.65;;;3.58;;
79755;SDS011;69239;50.678;12.280;2023-05-07T12:40:35;4.00;;;3.60;;
79755;SDS011;69239;50.678;12.280;2023-05-07T12:43:02;3.75;;;3.30;;
79755;SDS011;69239;50.678;12.280;2023-05-07T12:45:28;4.35;;;3.15;;
79755;SDS011;69239;50.678;12.280;2023-05-07T12:47:53;3.90;;;3.40;;
79755;SDS011;69239;50.678;12.280;2023-05-07T12:50:19;4.90;;;3.05;;
79755;SDS011;69239;50.678;12.280;2023-05-07T12:52:46;4.35;;;3.95;;
79755;SDS011;69239;50.678;12.280;2023-05-07T12:55:16;3.83;;;3.25;;
79755;SDS011;69239;50.678;12.280;2023-05-07T12:57:42;4.18;;;3.78;;
79755;SDS011;69239;50.678;12.280;2023-05-07T13:00:12;4.07;;;3.47;;
79755;SDS011;69239;50.678;12.280;2023-05-07T13:02:40;4.28;;;3.80;;
79755;SDS011;69239;50.678;12.280;2023-05-07T13:05:06;5.63;;;3.97;;
79755;SDS011;69239;50.678;12.280;2023-05-07T13:07:32;5.63;;;3.95;;
79755;SDS011;69239;50.678;12.280;2023-05-07T13:09:58;4.53;;;3.95;;
79755;SDS011;69239;50.678;12.280;2023-05-07T13:12:23;3.83;;;3.08;;
79755;SDS011;69239;50.678;12.280;2023-05-07T13:14:48;7.30;;;3.90;;
79755;SDS011;69239;50.678;12.280;2023-05-07T13:17:14;6.85;;;4.03;;
79755;SDS011;69239;50.678;12.280;2023-05-07T13:19:39;3.35;;;3.03;;
79755;SDS011;69239;50.678;12.280;2023-05-07T13:22:05;4.97;;;4.38;;
79755;SDS011;69239;50.678;12.280;2023-05-07T13:24:30;5.20;;;4.53;;
79755;SDS011;69239;50.678;12.280;2023-05-07T13:26:55;4.05;;;3.70;;
79755;SDS011;69239;50.678;12.280;2023-05-07T13:29:21;4.68;;;3.90;;
79755;SDS011;69239;50.678;12.280;2023-05-07T13:31:53;5.18;;;4.07;;
79755;SDS011;69239;50.678;12.280;2023-05-07T13:34:19;4.50;;;4.10;;
79755;SDS011;69239;50.678;12.280;2023-05-07T13:36:44;4.20;;;3.67;;
79755;SDS011;69239;50.678;12.280;2023-05-07T13:39:10;4.30;;;3.75;;
79755;SDS011;69239;50.678;12.280;2023-05-07T13:41:35;4.10;;;3.70;;
79755;SDS011;69239;50.678;12.280;2023-05-07T13:44:00;4.18;;;3.78;;
79755;SDS011;69239;50.678;12.280;2023-05-07T13:46:26;4.40;;;3.95;;
79755;SDS011;69239;50.678;12.280;2023-05-07T13:48:51;4.40;;;4.00;;
79755;SDS011;69239;50.678;12.280;2023-05-07T13:51:17;5.03;;;4.10;;
79755;SDS011;69239;50.678;12.280;2023-05-07T13:53:43;4.40;;;4.00;;
79755;SDS011;69239;50.678;12.280;2023-05-07T13:56:08;4.43;;;3.67;;
79755;SDS011;69239;50.678;12.280;2023-05-07T13:58:33;4.15;;;3.75;;
79755;SDS011;69239;50.678;12.280;2023-05-07T14:01:01;4.22;;;3.50;;
79755;SDS011;69239;50.678;12.280;2023-05-07T14:03:26;3.30;;;3.00;;
79755;SDS011;69239;50.678;12.280;2023-05-07T14:05:51;4.68;;;3.42;;
79755;SDS011;69239;50.678;12.280;2023-05-07T14:08:17;3.30;;;3.00;;
79755;SDS011;69239;50.678;12.280;2023-05-07T14:10:44;4.00;;;3.03;;
79755;SDS011;69239;50.678;12.280;2023-05-07T14:13:11;3.75;;;2.67;;
79755;SDS011;69239;50.678;12.280;2023-05-07T14:15:36;5.40;;;4.28;;
79755;SDS011;69239;50.678;12.280;2023-05-07T14:18:02;2.90;;;2.60;;
79755;SDS011;69239;50.678;12.280;2023-05-07T14:20:28;3.72;;;3.28;;
79755;SDS011;69239;50.678;12.280;2023-05-07T14:22:55;4.88;;;3.58;;
79755;SDS011;69239;50.678;12.280;2023-05-07T14:25:20;3.92;;;2.90;;
79755;SDS011;69239;50.678;12.280;2023-05-07T14:27:46;3.20;;;2.90;;
79755;SDS011;69239;50.678;12.280;2023-05-07T14:30:11;4.13;;;3.72;;